Time;durP1;ratioP1;P1;durP2;ratioP2;P2;SDS_P1;SDS_P2;PMS_P1;PMS_P2;Temp;Humidity;BMP_temperature;BMP_pressure;BME280_temperature;BME280_humidity;BME280_pressure;Samples;Min_cycle;Max_cycle;Signal;HPM_P1;HPM_P2
2024/02/24 00:01:44;;;;;;;5.83;5.17;;;;;;;;;;5023708;28;20486;-83
2024/02/24 00:04:11;;;;;;;5.30;4.80;;;;;;;;;;5026790;28;20529;-82
2024/02/24 00:06:37;;;;;;;7.17;5.20;;;;;;;;;;5030447;28;20485;-82
2024/02/24 00:09:03;;;;;;;6.97;4.73;;;;;;;;;;5024510;28;20558;-83
2024/02/24 00:11:31;;;;;;;5.00;4.53;;;;;;;;;;5022855;28;20462;-83
2024/02/24 00:13:58;;;;;;;6.07;4.70;;;;;;;;;;5028554;28;20520;-84
2024/02/24 00:16:24;;;;;;;5.37;4.90;;;;;;;;;;5020944;28;20545;-84
2024/02/24 00:18:55;;;;;;;5.97;4.77;;;;;;;;;;5028165;28;20454;-84
2024/02/24 00:21:21;;;;;;;5.40;3.87;;;;;;;;;;5022584;28;20850;-83
2024/02/24 00:23:48;;;;;;;4.67;4.33;;;;;;;;;;5019669;28;20528;-84
2024/02/24 00:26:14;;;;;;;6.67;6.10;;;;;;;;;;5028834;28;20525;-84
2024/02/24 00:28:42;;;;;;;4.77;4.37;;;;;;;;;;5033770;28;20510;-84
2024/02/24 00:31:08;;;;;;;6.67;4.63;;;;;;;;;;5027012;28;20497;-84
2024/02/24 00:33:35;;;;;;;4.90;4.50;;;;;;;;;;5030130;28;20551;-85
2024/02/24 00:36:03;;;;;;;6.60;5.90;;;;;;;;;;5036013;28;20501;-83
2024/02/24 00:38:30;;;;;;;7.60;4.53;;;;;;;;;;5021823;28;21214;-84
2024/02/24 00:40:56;;;;;;;6.80;4.77;;;;;;;;;;5025823;28;20455;-84
2024/02/24 00:43:22;;;;;;;5.17;4.37;;;;;;;;;;5026128;28;20484;-83
2024/02/24 00:45:50;;;;;;;4.77;4.17;;;;;;;;;;5028078;28;20525;-82
2024/02/24 00:48:16;;;;;;;4.67;3.90;;;;;;;;;;5025430;28;20522;-83
2024/02/24 00:50:43;;;;;;;5.63;3.93;;;;;;;;;;5017253;28;20492;-82
2024/02/24 00:53:09;;;;;;;7.20;4.83;;;;;;;;;;5019874;28;20481;-82
2024/02/24 00:55:35;;;;;;;5.17;4.77;;;;;;;;;;5022812;28;20451;-82
2024/02/24 00:58:02;;;;;;;9.17;3.93;;;;;;;;;;5019258;28;20590;-82
2024/02/24 01:00:28;;;;;;;5.60;3.90;;;;;;;;;;5031220;28;20518;-80
2024/02/24 01:02:56;;;;;;;7.30;4.53;;;;;;;;;;5022899;28;20545;-80
2024/02/24 01:05:22;;;;;;;4.83;4.30;;;;;;;;;;5022621;28;20474;-82
2024/02/24 01:07:49;;;;;;;4.80;3.87;;;;;;;;;;5028270;28;20843;-83
2024/02/24 01:10:15;;;;;;;4.67;3.90;;;;;;;;;;5021610;28;20618;-82
2024/02/24 01:12:42;;;;;;;4.57;4.27;;;;;;;;;;5019586;28;20464;-82
2024/02/24 01:15:08;;;;;;;6.57;4.37;;;;;;;;;;5027006;28;20962;-81
2024/02/24 01:17:34;;;;;;;5.33;4.23;;;;;;;;;;5021385;28;20486;-82
2024/02/24 01:20:03;;;;;;;4.60;4.20;;;;;;;;;;5022061;28;20824;-83
2024/02/24 01:22:29;;;;;;;7.23;4.33;;;;;;;;;;5022160;28;20634;-82
2024/02/24 01:24:56;;;;;;;5.63;4.37;;;;;;;;;;5017698;28;20452;-83
2024/02/24 01:27:22;;;;;;;4.53;4.17;;;;;;;;;;5026072;28;20461;-82
2024/02/24 01:29:48;;;;;;;4.70;4.33;;;;;;;;;;5021446;28;20530;-82
2024/02/24 01:32:15;;;;;;;5.10;4.70;;;;;;;;;;5022390;28;20479;-83
2024/02/24 01:34:41;;;;;;;4.67;3.87;;;;;;;;;;5027838;28;20509;-82
2024/02/24 01:37:09;;;;;;;5.27;4.80;;;;;;;;;;5026068;28;20545;-82
2024/02/24 01:39:36;;;;;;;4.80;4.40;;;;;;;;;;5013050;28;20510;-83
2024/02/24 01:42:02;;;;;;;4.90;3.90;;;;;;;;;;5015968;28;20473;-83
2024/02/24 01:44:28;;;;;;;4.77;4.30;;;;;;;;;;5025205;28;20477;-83
2024/02/24 01:46:55;;;;;;;4.33;3.93;;;;;;;;;;5023789;28;20521;-82
2024/02/24 01:49:21;;;;;;;4.10;3.80;;;;;;;;;;5026602;28;20554;-82
2024/02/24 01:51:47;;;;;;;4.67;4.10;;;;;;;;;;5021757;28;20500;-83
2024/02/24 01:54:16;;;;;;;5.23;4.73;;;;;;;;;;5025654;28;20572;-82
2024/02/24 01:56:44;;;;;;;4.87;4.23;;;;;;;;;;5021733;28;20557;-81
2024/02/24 01:59:11;;;;;;;5.00;4.70;;;;;;;;;;5022987;28;21177;-82
2024/02/24 02:01:37;;;;;;;4.93;4.43;;;;;;;;;;5025530;28;20543;-84
2024/02/24 02:04:03;;;;;;;6.17;4.73;;;;;;;;;;5020973;28;20538;-81
2024/02/24 02:06:31;;;;;;;6.17;5.67;;;;;;;;;;5016681;28;20546;-83
2024/02/24 02:08:58;;;;;;;6.10;5.13;;;;;;;;;;5018696;28;20446;-84
2024/02/24 02:11:25;;;;;;;4.70;4.40;;;;;;;;;;5024820;28;20504;-83
2024/02/24 02:13:52;;;;;;;8.03;4.33;;;;;;;;;;5024454;28;20513;-84
2024/02/24 02:16:18;;;;;;;5.57;5.07;;;;;;;;;;5026184;28;20505;-84
2024/02/24 02:18:44;;;;;;;5.73;5.33;;;;;;;;;;5021288;28;20482;-83
2024/02/24 02:21:11;;;;;;;5.20;4.80;;;;;;;;;;5026562;28;20992;-84
2024/02/24 02:23:39;;;;;;;5.40;5.00;;;;;;;;;;5022682;28;20447;-81
2024/02/24 02:26:06;;;;;;;6.13;5.53;;;;;;;;;;5026358;28;20450;-83
2024/02/24 02:28:32;;;;;;;9.53;5.60;;;;;;;;;;5026189;28;20998;-83
2024/02/24 02:31:00;;;;;;;5.23;4.80;;;;;;;;;;5020459;28;20522;-82
2024/02/24 02:33:26;;;;;;;6.00;5.17;;;;;;;;;;5025054;28;20545;-83
2024/02/24 02:35:52;;;;;;;7.97;5.50;;;;;;;;;;5021932;28;20486;-83
2024/02/24 02:38:19;;;;;;;5.50;5.10;;;;;;;;;;5015644;28;21250;-84
2024/02/24 02:40:46;;;;;;;5.80;5.30;;;;;;;;;;5023319;28;20534;-83
2024/02/24 02:43:13;;;;;;;7.33;5.70;;;;;;;;;;5022244;28;20538;-83
2024/02/24 02:45:39;;;;;;;6.17;5.57;;;;;;;;;;5022686;28;20549;-84
2024/02/24 02:48:06;;;;;;;5.70;5.37;;;;;;;;;;5023934;28;20523;-82
2024/02/24 02:50:34;;;;;;;5.57;5.17;;;;;;;;;;5022575;28;21024;-82
2024/02/24 02:53:00;;;;;;;6.33;5.17;;;;;;;;;;5029445;28;20488;-82
2024/02/24 02:55:26;;;;;;;10.60;5.23;;;;;;;;;;5024267;28;20529;-83
2024/02/24 02:57:54;;;;;;;5.40;5.07;;;;;;;;;;5018234;28;20525;-82
2024/02/24 03:00:21;;;;;;;8.57;5.23;;;;;;;;;;5026898;28;20513;-82
2024/02/24 03:02:47;;;;;;;6.73;5.90;;;;;;;;;;5020224;28;20483;-82
2024/02/24 03:05:13;;;;;;;5.20;4.70;;;;;;;;;;5029479;28;20529;-82
2024/02/24 03:07:40;;;;;;;6.07;5.27;;;;;;;;;;5029341;28;20526;-82
2024/02/24 03:10:07;;;;;;;8.53;5.80;;;;;;;;;;5026853;28;20549;-82
2024/02/24 03:12:33;;;;;;;5.90;5.40;;;;;;;;;;5028609;28;20502;-82
2024/02/24 03:15:01;;;;;;;5.40;5.00;;;;;;;;;;5029458;28;20522;-82
2024/02/24 03:17:27;;;;;;;5.90;5.33;;;;;;;;;;5031151;28;20512;-82
2024/02/24 03:19:54;;;;;;;5.53;5.00;;;;;;;;;;5030128;28;20465;-84
2024/02/24 03:22:20;;;;;;;5.93;5.40;;;;;;;;;;5028072;28;20469;-82
2024/02/24 03:24:46;;;;;;;6.57;5.57;;;;;;;;;;5024752;28;20505;-82
2024/02/24 03:27:13;;;;;;;8.50;6.03;;;;;;;;;;5023534;28;20541;-82
2024/02/24 03:29:40;;;;;;;8.47;5.40;;;;;;;;;;5021798;28;20455;-83
2024/02/24 03:32:08;;;;;;;7.67;5.57;;;;;;;;;;5035952;28;20508;-84
2024/02/24 03:34:34;;;;;;;5.20;4.80;;;;;;;;;;5025904;28;20510;-82
2024/02/24 03:37:00;;;;;;;8.43;5.40;;;;;;;;;;5025369;28;20490;-82
2024/02/24 03:39:27;;;;;;;8.13;5.30;;;;;;;;;;5022282;28;20558;-82
2024/02/24 03:41:53;;;;;;;5.80;5.30;;;;;;;;;;5035103;28;20458;-83
2024/02/24 03:44:20;;;;;;;6.30;5.70;;;;;;;;;;5023698;28;20466;-82
2024/02/24 03:46:46;;;;;;;6.37;5.87;;;;;;;;;;5036998;28;20497;-83
2024/02/24 03:49:14;;;;;;;6.00;5.50;;;;;;;;;;5022241;28;20510;-84
2024/02/24 03:51:40;;;;;;;6.03;5.53;;;;;;;;;;5023807;28;20459;-85
2024/02/24 03:54:06;;;;;;;7.00;6.50;;;;;;;;;;5020020;28;20547;-84
2024/02/24 03:56:33;;;;;;;6.13;5.33;;;;;;;;;;5029001;28;20544;-84
2024/02/24 03:58:59;;;;;;;8.97;5.57;;;;;;;;;;5029542;28;20580;-85
2024/02/24 04:01:27;;;;;;;7.40;5.80;;;;;;;;;;5027764;28;20454;-83
2024/02/24 04:03:54;;;;;;;6.33;5.73;;;;;;;;;;5020879;28;20454;-82
2024/02/24 04:06:21;;;;;;;7.33;5.47;;;;;;;;;;5021312;28;20814;-84
2024/02/24 04:08:48;;;;;;;5.93;5.43;;;;;;;;;;5014983;28;20546;-82
2024/02/24 04:11:14;;;;;;;5.30;4.80;;;;;;;;;;5024092;28;20951;-82
2024/02/24 04:13:40;;;;;;;7.30;5.63;;;;;;;;;;5017420;28;20502;-82
2024/02/24 04:16:07;;;;;;;5.83;5.23;;;;;;;;;;5022716;28;20467;-82
2024/02/24 04:18:33;;;;;;;5.47;5.03;;;;;;;;;;5030354;28;20525;-83
2024/02/24 04:21:00;;;;;;;5.97;5.40;;;;;;;;;;5024147;28;20535;-82
2024/02/24 04:23:27;;;;;;;9.33;5.53;;;;;;;;;;5029756;28;20545;-83
2024/02/24 04:25:54;;;;;;;9.10;5.13;;;;;;;;;;5013597;28;20526;-84
2024/02/24 04:28:20;;;;;;;6.83;5.30;;;;;;;;;;5017839;28;20478;-83
2024/02/24 04:30:47;;;;;;;6.53;5.67;;;;;;;;;;5024333;28;21217;-83
2024/02/24 04:33:13;;;;;;;5.30;4.77;;;;;;;;;;5028400;28;20463;-82
2024/02/24 04:35:40;;;;;;;7.00;5.10;;;;;;;;;;5025688;28;20846;-83
2024/02/24 04:38:06;;;;;;;10.37;5.10;;;;;;;;;;5024238;28;20489;-82
2024/02/24 04:40:35;;;;;;;6.47;4.87;;;;;;;;;;5027829;28;20465;-82
2024/02/24 04:43:02;;;;;;;6.20;5.23;;;;;;;;;;5025858;28;20461;-82
2024/02/24 04:45:28;;;;;;;5.70;4.87;;;;;;;;;;5020616;28;20573;-82
2024/02/24 04:47:55;;;;;;;8.70;4.93;;;;;;;;;;5020759;28;20890;-83
2024/02/24 04:50:21;;;;;;;5.37;4.90;;;;;;;;;;5015109;28;20490;-82
2024/02/24 04:52:47;;;;;;;6.03;5.53;;;;;;;;;;5015002;28;20618;-83
2024/02/24 04:55:14;;;;;;;5.80;5.30;;;;;;;;;;5021505;28;20505;-83
2024/02/24 04:57:41;;;;;;;6.03;5.20;;;;;;;;;;5021195;28;20493;-84
2024/02/24 05:00:08;;;;;;;7.53;5.00;;;;;;;;;;5035072;28;20897;-83
2024/02/24 05:02:35;;;;;;;5.00;4.70;;;;;;;;;;5027846;28;20886;-81
2024/02/24 05:05:01;;;;;;;6.30;5.47;;;;;;;;;;5022604;28;20510;-81
2024/02/24 05:07:28;;;;;;;6.93;5.43;;;;;;;;;;5023308;28;20447;-82
2024/02/24 05:09:54;;;;;;;6.67;5.90;;;;;;;;;;5022062;28;20490;-82
2024/02/24 05:12:21;;;;;;;9.53;6.37;;;;;;;;;;5023887;28;20490;-83
2024/02/24 05:14:50;;;;;;;8.93;5.20;;;;;;;;;;5024510;28;20557;-83
2024/02/24 05:17:16;;;;;;;5.67;5.20;;;;;;;;;;5024239;28;20521;-82
2024/02/24 05:19:43;;;;;;;6.37;5.97;;;;;;;;;;5020064;28;20529;-84
2024/02/24 05:22:09;;;;;;;7.00;5.10;;;;;;;;;;5027737;28;20501;-83
2024/02/24 05:24:37;;;;;;;5.63;5.20;;;;;;;;;;5026201;28;21041;-83
2024/02/24 05:27:04;;;;;;;5.23;4.73;;;;;;;;;;5020851;28;20457;-83
2024/02/24 05:29:30;;;;;;;5.70;5.23;;;;;;;;;;5027140;28;20557;-84
2024/02/24 05:31:59;;;;;;;5.70;5.03;;;;;;;;;;5015824;28;20491;-84
2024/02/24 05:34:25;;;;;;;7.30;5.07;;;;;;;;;;5026673;28;20517;-84
2024/02/24 05:36:52;;;;;;;6.13;5.20;;;;;;;;;;5026466;28;20873;-84
2024/02/24 05:39:18;;;;;;;8.83;5.20;;;;;;;;;;5020945;28;20506;-84
2024/02/24 05:41:44;;;;;;;7.67;4.97;;;;;;;;;;5019933;28;20543;-84
2024/02/24 05:44:11;;;;;;;5.00;4.60;;;;;;;;;;5021279;28;20479;-84
2024/02/24 05:46:37;;;;;;;5.93;5.43;;;;;;;;;;5023269;28;20443;-84
2024/02/24 05:49:05;;;;;;;7.57;4.80;;;;;;;;;;5021636;28;20537;-83
2024/02/24 05:51:31;;;;;;;4.90;4.50;;;;;;;;;;5023983;28;20486;-82
2024/02/24 05:53:57;;;;;;;6.60;4.83;;;;;;;;;;5023866;28;20537;-83
2024/02/24 05:56:24;;;;;;;5.60;5.30;;;;;;;;;;5016322;28;20482;-84
2024/02/24 05:58:50;;;;;;;4.90;4.60;;;;;;;;;;5019443;28;20485;-82
2024/02/24 06:01:18;;;;;;;5.13;4.80;;;;;;;;;;5018950;28;20455;-82
2024/02/24 06:03:44;;;;;;;6.63;5.57;;;;;;;;;;5019417;28;20462;-84
2024/02/24 06:06:12;;;;;;;5.83;5.27;;;;;;;;;;5017535;28;20498;-82
2024/02/24 06:08:38;;;;;;;6.47;5.80;;;;;;;;;;5019769;28;20478;-81
2024/02/24 06:11:06;;;;;;;6.20;5.63;;;;;;;;;;5022215;28;20493;-82
2024/02/24 06:13:32;;;;;;;5.93;5.50;;;;;;;;;;5032787;28;20462;-82
2024/02/24 06:15:58;;;;;;;5.80;5.40;;;;;;;;;;5023545;28;20564;-83
2024/02/24 06:18:25;;;;;;;4.57;4.23;;;;;;;;;;5018208;28;20494;-82
2024/02/24 06:20:52;;;;;;;11.93;10.00;;;;;;;;;;5022892;28;21259;-83
2024/02/24 06:23:20;;;;;;;5.30;4.73;;;;;;;;;;5022033;28;20477;-81
2024/02/24 06:25:46;;;;;;;5.47;5.17;;;;;;;;;;5030065;28;20434;-83
2024/02/24 06:28:12;;;;;;;5.50;4.47;;;;;;;;;;5026508;28;20498;-83
2024/02/24 06:30:39;;;;;;;6.77;5.00;;;;;;;;;;5022737;28;20504;-83
2024/02/24 06:33:07;;;;;;;5.63;5.23;;;;;;;;;;5022917;28;20522;-83
2024/02/24 06:35:33;;;;;;;8.70;5.57;;;;;;;;;;5010724;28;20514;-83
2024/02/24 06:37:59;;;;;;;6.20;5.70;;;;;;;;;;5021061;28;21006;-84
2024/02/24 06:40:28;;;;;;;6.60;6.10;;;;;;;;;;5021321;28;20796;-82
2024/02/24 06:42:54;;;;;;;6.80;6.30;;;;;;;;;;5027808;28;20455;-80
2024/02/24 06:45:21;;;;;;;6.50;6.00;;;;;;;;;;5015809;28;20523;-81
2024/02/24 06:47:47;;;;;;;7.00;6.60;;;;;;;;;;5008471;28;20434;-81
2024/02/24 06:50:14;;;;;;;6.57;5.97;;;;;;;;;;5017808;28;20482;-81
2024/02/24 06:52:40;;;;;;;7.10;6.63;;;;;;;;;;5017368;28;20490;-84
2024/02/24 06:55:07;;;;;;;6.63;5.90;;;;;;;;;;5018436;28;20517;-82
2024/02/24 06:57:34;;;;;;;5.37;4.87;;;;;;;;;;5018071;28;20451;-82
2024/02/24 07:00:01;;;;;;;10.80;10.00;;;;;;;;;;5021106;28;20548;-79
2024/02/24 07:02:27;;;;;;;11.60;10.70;;;;;;;;;;5013041;28;20497;-80
2024/02/24 07:04:54;;;;;;;13.07;11.03;;;;;;;;;;5017632;28;21163;-79
2024/02/24 07:07:20;;;;;;;10.20;9.40;;;;;;;;;;5026536;28;20505;-80
2024/02/24 07:09:47;;;;;;;6.10;5.80;;;;;;;;;;5025351;28;20516;-80
2024/02/24 07:12:13;;;;;;;6.97;6.43;;;;;;;;;;5017292;28;20482;-82
2024/02/24 07:14:41;;;;;;;4.80;4.47;;;;;;;;;;5017191;28;20546;-81
2024/02/24 07:17:08;;;;;;;5.40;4.90;;;;;;;;;;5014200;28;20683;-82
2024/02/24 07:19:34;;;;;;;6.03;5.53;;;;;;;;;;5026985;28;21077;-82
2024/02/24 07:22:01;;;;;;;6.40;6.00;;;;;;;;;;5018541;28;20486;-82
2024/02/24 07:24:27;;;;;;;6.80;6.07;;;;;;;;;;5026888;28;20446;-82
2024/02/24 07:26:54;;;;;;;6.37;6.07;;;;;;;;;;5024591;28;20545;-82
2024/02/24 07:29:20;;;;;;;7.17;6.67;;;;;;;;;;5020419;28;20568;-82
2024/02/24 07:31:48;;;;;;;6.53;6.13;;;;;;;;;;5019416;28;20479;-81
2024/02/24 07:34:15;;;;;;;6.87;6.37;;;;;;;;;;5020873;28;20453;-80
2024/02/24 07:36:41;;;;;;;7.20;6.70;;;;;;;;;;5023034;28;20518;-81
2024/02/24 07:39:08;;;;;;;6.07;5.77;;;;;;;;;;5020345;28;20833;-82
2024/02/24 07:41:34;;;;;;;7.17;6.20;;;;;;;;;;5020001;28;20454;-81
2024/02/24 07:44:00;;;;;;;7.20;6.70;;;;;;;;;;5024103;28;20553;-81
2024/02/24 07:46:29;;;;;;;7.10;6.50;;;;;;;;;;5021836;28;20881;-82
2024/02/24 07:48:57;;;;;;;7.00;6.60;;;;;;;;;;5016667;28;20459;-82
2024/02/24 07:51:24;;;;;;;6.80;6.20;;;;;;;;;;5023715;28;20450;-81
2024/02/24 07:53:50;;;;;;;6.07;5.57;;;;;;;;;;5021357;28;21008;-82
2024/02/24 07:56:16;;;;;;;8.03;7.10;;;;;;;;;;5020655;28;20573;-81
2024/02/24 07:58:43;;;;;;;7.83;7.23;;;;;;;;;;5021381;28;20494;-81
2024/02/24 08:01:09;;;;;;;6.47;5.80;;;;;;;;;;5021463;28;20539;-82
2024/02/24 08:03:36;;;;;;;6.57;6.13;;;;;;;;;;5020769;28;20454;-83
2024/02/24 08:06:04;;;;;;;6.77;6.20;;;;;;;;;;5015969;28;20487;-80
2024/02/24 08:08:33;;;;;;;6.93;6.43;;;;;;;;;;5025911;28;20489;-81
2024/02/24 08:11:00;;;;;;;6.73;6.13;;;;;;;;;;5017444;28;20458;-80
2024/02/24 08:13:26;;;;;;;6.83;6.17;;;;;;;;;;5025611;28;20465;-82
2024/02/24 08:15:52;;;;;;;6.90;6.40;;;;;;;;;;5020219;28;20522;-81
2024/02/24 08:18:19;;;;;;;7.07;6.67;;;;;;;;;;5029081;28;20604;-82
2024/02/24 08:20:45;;;;;;;7.03;6.63;;;;;;;;;;5016095;28;20531;-85
2024/02/24 08:23:13;;;;;;;7.83;6.70;;;;;;;;;;5018481;28;20486;-85
2024/02/24 08:25:39;;;;;;;6.70;6.40;;;;;;;;;;5015182;28;20483;-86
2024/02/24 08:28:06;;;;;;;7.00;6.40;;;;;;;;;;5021194;28;20519;-87
2024/02/24 08:30:33;;;;;;;6.90;6.40;;;;;;;;;;5027361;28;20569;-85
2024/02/24 08:32:59;;;;;;;6.80;6.30;;;;;;;;;;5017465;28;20522;-82
2024/02/24 08:35:25;;;;;;;6.37;5.90;;;;;;;;;;5022272;28;20581;-84
2024/02/24 08:37:52;;;;;;;7.10;6.53;;;;;;;;;;5023710;28;20506;-81
2024/02/24 08:40:19;;;;;;;6.67;6.27;;;;;;;;;;5027326;28;20470;-81
2024/02/24 08:42:46;;;;;;;6.43;6.07;;;;;;;;;;5017569;28;20498;-81
2024/02/24 08:45:12;;;;;;;6.50;6.10;;;;;;;;;;5014076;28;21150;-78
2024/02/24 08:47:39;;;;;;;6.30;5.90;;;;;;;;;;5020520;28;20505;-79
2024/02/24 08:50:06;;;;;;;6.20;5.80;;;;;;;;;;5027643;28;20589;-79
2024/02/24 08:52:33;;;;;;;6.70;6.20;;;;;;;;;;5011811;28;20494;-82
2024/02/24 08:55:00;;;;;;;6.50;6.10;;;;;;;;;;5013131;28;21057;-81
2024/02/24 08:57:28;;;;;;;6.90;6.50;;;;;;;;;;5024560;28;20517;-82
2024/02/24 08:59:54;;;;;;;6.90;6.40;;;;;;;;;;5022777;28;20445;-82
2024/02/24 09:02:20;;;;;;;6.67;6.17;;;;;;;;;;5018449;28;20454;-83
2024/02/24 09:04:47;;;;;;;6.90;6.40;;;;;;;;;;5021495;28;20455;-83
2024/02/24 09:07:13;;;;;;;6.27;5.97;;;;;;;;;;5024275;28;20541;-83
2024/02/24 09:09:40;;;;;;;6.70;6.30;;;;;;;;;;5025018;28;20470;-84
2024/02/24 09:12:06;;;;;;;6.57;6.17;;;;;;;;;;5020010;28;20454;-82
2024/02/24 09:14:34;;;;;;;6.67;6.00;;;;;;;;;;5019709;28;20470;-84
2024/02/24 09:17:00;;;;;;;6.77;6.27;;;;;;;;;;5027522;28;20524;-83
2024/02/24 09:19:27;;;;;;;6.20;5.90;;;;;;;;;;5009414;28;20543;-83
2024/02/24 09:21:54;;;;;;;7.40;6.37;;;;;;;;;;5018039;28;20463;-82
2024/02/24 09:24:21;;;;;;;6.13;5.83;;;;;;;;;;5020985;28;20490;-81
2024/02/24 09:26:47;;;;;;;6.20;5.90;;;;;;;;;;5023569;28;20459;-81
2024/02/24 09:29:14;;;;;;;6.80;6.50;;;;;;;;;;5015214;28;20447;-83
2024/02/24 09:31:42;;;;;;;7.70;7.10;;;;;;;;;;5013418;28;20546;-82
2024/02/24 09:34:08;;;;;;;7.10;6.43;;;;;;;;;;5025996;28;20475;-81
2024/02/24 09:36:37;;;;;;;6.97;6.57;;;;;;;;;;5023692;28;20525;-87
2024/02/24 09:39:03;;;;;;;7.07;6.77;;;;;;;;;;5014472;28;20473;-85
2024/02/24 09:41:30;;;;;;;7.10;6.70;;;;;;;;;;5018580;28;20455;-86
2024/02/24 09:43:56;;;;;;;6.50;6.20;;;;;;;;;;5014671;28;20463;-83
2024/02/24 09:46:23;;;;;;;6.53;6.13;;;;;;;;;;5016549;28;20454;-85
2024/02/24 09:48:52;;;;;;;7.00;6.70;;;;;;;;;;5015544;28;20537;-86
2024/02/24 09:51:18;;;;;;;6.93;6.43;;;;;;;;;;5016768;28;20514;-85
2024/02/24 09:53:44;;;;;;;6.70;6.30;;;;;;;;;;5015020;28;20504;-81
2024/02/24 09:56:11;;;;;;;6.60;6.20;;;;;;;;;;5013349;28;21170;-84
2024/02/24 09:58:38;;;;;;;6.33;6.03;;;;;;;;;;5025270;28;20518;-83
2024/02/24 10:01:04;;;;;;;6.67;6.17;;;;;;;;;;5024342;28;20481;-83
2024/02/24 10:03:31;;;;;;;7.70;7.13;;;;;;;;;;5015669;28;20913;-83
2024/02/24 10:05:59;;;;;;;6.53;6.23;;;;;;;;;;5019550;28;20442;-81
2024/02/24 10:08:25;;;;;;;6.90;6.60;;;;;;;;;;5019410;28;20546;-85
2024/02/24 10:10:52;;;;;;;6.97;6.60;;;;;;;;;;5020641;28;20489;-82
2024/02/24 10:13:19;;;;;;;6.90;6.60;;;;;;;;;;5025511;28;20477;-80
2024/02/24 10:15:45;;;;;;;9.60;9.10;;;;;;;;;;5015975;28;20643;-82
2024/02/24 10:18:12;;;;;;;10.47;9.87;;;;;;;;;;5016765;28;20506;-80
2024/02/24 10:20:38;;;;;;;5.00;4.70;;;;;;;;;;5009130;28;20467;-81
2024/02/24 10:23:06;;;;;;;5.73;5.43;;;;;;;;;;5017924;28;20518;-82
2024/02/24 10:25:32;;;;;;;5.50;5.17;;;;;;;;;;5011390;28;20469;-81
2024/02/24 10:27:59;;;;;;;5.93;5.67;;;;;;;;;;5019799;28;20486;-83
2024/02/24 10:30:25;;;;;;;5.40;5.10;;;;;;;;;;5023636;28;20498;-83
2024/02/24 10:32:53;;;;;;;5.00;4.80;;;;;;;;;;5018504;28;20465;-82
2024/02/24 10:35:19;;;;;;;4.80;4.50;;;;;;;;;;5017460;28;21019;-83
2024/02/24 10:37:47;;;;;;;5.20;4.67;;;;;;;;;;5009402;28;20550;-83
2024/02/24 10:40:16;;;;;;;5.50;5.03;;;;;;;;;;5021401;28;20482;-82
2024/02/24 10:42:43;;;;;;;4.83;4.50;;;;;;;;;;5018610;28;20523;-79
2024/02/24 10:45:10;;;;;;;5.10;4.90;;;;;;;;;;5014742;28;20515;-78
2024/02/24 10:47:36;;;;;;;4.43;4.13;;;;;;;;;;5022289;28;20462;-81
2024/02/24 10:50:05;;;;;;;5.10;4.80;;;;;;;;;;5013862;28;20911;-78
2024/02/24 10:52:32;;;;;;;5.27;4.97;;;;;;;;;;5012570;28;20471;-81
2024/02/24 10:55:01;;;;;;;5.27;4.97;;;;;;;;;;5023801;28;20460;-81
2024/02/24 10:57:29;;;;;;;4.20;4.00;;;;;;;;;;5021070;28;20545;-79
2024/02/24 10:59:56;;;;;;;5.07;4.80;;;;;;;;;;5026900;28;20492;-80
2024/02/24 11:02:24;;;;;;;4.07;3.87;;;;;;;;;;5027470;28;20533;-80
2024/02/24 11:04:51;;;;;;;4.20;4.00;;;;;;;;;;5016024;28;21116;-79
2024/02/24 11:07:20;;;;;;;5.07;4.63;;;;;;;;;;5014243;28;20530;-83
2024/02/24 11:09:47;;;;;;;3.60;3.30;;;;;;;;;;5026408;28;20497;-83
2024/02/24 11:12:14;;;;;;;4.47;4.27;;;;;;;;;;5028352;28;20513;-84
2024/02/24 11:14:43;;;;;;;4.17;3.97;;;;;;;;;;5021150;28;20457;-84
2024/02/24 11:17:10;;;;;;;4.60;4.33;;;;;;;;;;5021827;28;20500;-83
2024/02/24 11:19:43;;;;;;;4.53;4.23;;;;;;;;;;5017509;28;20518;-83
2024/02/24 11:22:12;;;;;;;3.23;3.03;;;;;;;;;;5018787;28;20516;-83
2024/02/24 11:24:39;;;;;;;3.33;3.13;;;;;;;;;;5019585;28;20533;-83
2024/02/24 11:27:04;;;;;;;3.43;3.23;;;;;;;;;;5021501;28;20979;-83
2024/02/24 11:29:33;;;;;;;3.20;3.00;;;;;;;;;;5016327;28;20458;-81
2024/02/24 11:32:07;;;;;;;4.13;3.93;;;;;;;;;;5014062;28;20467;-81
2024/02/24 11:34:34;;;;;;;4.20;3.90;;;;;;;;;;5017275;28;20500;-83
2024/02/24 11:37:01;;;;;;;4.67;4.33;;;;;;;;;;5020017;28;20871;-83
2024/02/24 11:39:28;;;;;;;4.90;4.60;;;;;;;;;;5015606;28;20486;-82
2024/02/24 11:41:55;;;;;;;4.53;4.23;;;;;;;;;;5021038;28;20477;-81
2024/02/24 11:44:21;;;;;;;5.27;4.87;;;;;;;;;;5025893;28;20482;-81
2024/02/24 11:46:48;;;;;;;5.90;5.43;;;;;;;;;;5018924;28;20490;-80
2024/02/24 11:49:16;;;;;;;6.03;5.63;;;;;;;;;;5021769;28;20514;-79
2024/02/24 11:51:43;;;;;;;6.40;5.90;;;;;;;;;;5014303;28;21237;-78
2024/02/24 11:54:10;;;;;;;5.47;5.07;;;;;;;;;;5011801;28;20452;-79
2024/02/24 11:56:37;;;;;;;6.13;5.73;;;;;;;;;;5019829;28;20494;-81
2024/02/24 11:59:03;;;;;;;5.83;5.53;;;;;;;;;;5018067;28;20538;-82
2024/02/24 12:01:30;;;;;;;5.27;4.77;;;;;;;;;;5016449;28;20487;-82
2024/02/24 12:03:57;;;;;;;5.03;4.70;;;;;;;;;;5012603;28;20454;-81
2024/02/24 12:06:26;;;;;;;5.60;5.20;;;;;;;;;;5016609;28;20446;-81
2024/02/24 12:08:52;;;;;;;5.20;5.00;;;;;;;;;;5018255;28;20534;-80
2024/02/24 12:11:19;;;;;;;5.47;5.07;;;;;;;;;;5019891;28;20494;-80
2024/02/24 12:13:46;;;;;;;4.40;4.20;;;;;;;;;;5021237;28;20498;-80
2024/02/24 12:16:13;;;;;;;5.17;4.87;;;;;;;;;;5018544;28;20463;-81
2024/02/24 12:18:40;;;;;;;5.07;4.70;;;;;;;;;;5015736;28;20503;-82
2024/02/24 12:21:07;;;;;;;5.20;4.90;;;;;;;;;;5020266;28;20557;-79
2024/02/24 12:23:37;;;;;;;6.23;5.63;;;;;;;;;;5020551;28;21235;-80
2024/02/24 12:26:11;;;;;;;5.57;5.23;;;;;;;;;;5025926;28;20486;-80
2024/02/24 12:28:39;;;;;;;4.73;4.53;;;;;;;;;;5020538;28;20454;-77
2024/02/24 12:31:08;;;;;;;4.40;4.20;;;;;;;;;;5020260;28;20461;-80
2024/02/24 12:33:35;;;;;;;5.63;5.40;;;;;;;;;;5007634;28;20459;-81
2024/02/24 12:36:04;;;;;;;5.87;5.57;;;;;;;;;;5023601;28;20780;-78
2024/02/24 12:38:30;;;;;;;5.03;4.70;;;;;;;;;;5017925;28;20478;-83
2024/02/24 12:40:59;;;;;;;4.57;4.37;;;;;;;;;;5025199;28;20546;-82
2024/02/24 12:43:25;;;;;;;4.73;4.50;;;;;;;;;;5015278;28;20480;-84
2024/02/24 12:45:52;;;;;;;5.57;5.27;;;;;;;;;;5019288;28;20566;-82
2024/02/24 12:48:18;;;;;;;6.23;5.93;;;;;;;;;;5012597;28;20532;-84
2024/02/24 12:50:45;;;;;;;5.60;5.30;;;;;;;;;;5016605;28;20489;-85
2024/02/24 12:53:11;;;;;;;6.40;6.10;;;;;;;;;;5016365;28;20463;-83
2024/02/24 12:55:38;;;;;;;5.50;5.30;;;;;;;;;;5018770;28;20451;-84
2024/02/24 12:58:06;;;;;;;6.20;5.90;;;;;;;;;;5017487;28;20558;-83
2024/02/24 13:00:32;;;;;;;5.40;5.20;;;;;;;;;;5019331;28;20549;-82
2024/02/24 13:02:59;;;;;;;4.90;4.60;;;;;;;;;;5018795;28;21038;-84
2024/02/24 13:05:25;;;;;;;6.27;5.77;;;;;;;;;;5020358;28;21070;-81
2024/02/24 13:07:52;;;;;;;5.00;4.70;;;;;;;;;;5011096;28;20502;-82
2024/02/24 13:10:18;;;;;;;5.37;5.07;;;;;;;;;;5019571;28;20518;-82
2024/02/24 13:12:45;;;;;;;6.03;5.63;;;;;;;;;;5020360;28;20467;-86
2024/02/24 13:15:12;;;;;;;5.67;5.40;;;;;;;;;;5018823;28;20458;-85
2024/02/24 13:17:39;;;;;;;5.67;5.37;;;;;;;;;;5011686;28;20514;-84
2024/02/24 13:20:05;;;;;;;6.00;5.70;;;;;;;;;;5017912;28;20526;-84
2024/02/24 13:22:32;;;;;;;6.13;5.83;;;;;;;;;;5017654;28;20483;-84
2024/02/24 13:24:58;;;;;;;4.50;4.30;;;;;;;;;;5019349;28;20885;-85
2024/02/24 13:27:25;;;;;;;5.00;4.70;;;;;;;;;;5011529;28;20538;-82
2024/02/24 13:29:51;;;;;;;5.10;4.90;;;;;;;;;;5019433;28;20560;-84
2024/02/24 13:32:19;;;;;;;6.17;5.87;;;;;;;;;;5019654;28;20497;-84
2024/02/24 13:34:45;;;;;;;5.90;5.50;;;;;;;;;;5017814;28;20451;-83
2024/02/24 13:37:13;;;;;;;5.37;5.07;;;;;;;;;;5016276;28;20478;-89
2024/02/24 13:39:39;;;;;;;5.10;4.60;;;;;;;;;;5019934;28;20472;-88
2024/02/24 13:42:06;;;;;;;5.33;4.90;;;;;;;;;;5008357;28;20643;-88
2024/02/24 13:44:32;;;;;;;5.13;4.93;;;;;;;;;;5019279;28;20471;-86
2024/02/24 13:46:59;;;;;;;4.87;4.57;;;;;;;;;;5011626;28;20518;-86
2024/02/24 13:49:26;;;;;;;5.13;4.83;;;;;;;;;;5014633;28;20501;-85
2024/02/24 13:51:53;;;;;;;5.50;5.20;;;;;;;;;;5017243;28;20475;-85
2024/02/24 13:54:19;;;;;;;6.87;6.30;;;;;;;;;;5019852;28;20549;-84
2024/02/24 13:56:47;;;;;;;5.97;5.57;;;;;;;;;;5017207;28;20554;-83
2024/02/24 13:59:13;;;;;;;5.80;5.60;;;;;;;;;;5017293;28;20485;-85
2024/02/24 14:01:39;;;;;;;6.27;5.97;;;;;;;;;;5025313;28;20458;-82
2024/02/24 14:04:06;;;;;;;5.97;5.67;;;;;;;;;;5010033;28;20493;-86
2024/02/24 14:06:34;;;;;;;5.70;5.47;;;;;;;;;;5012606;28;20528;-87
2024/02/24 14:09:05;;;;;;;6.50;6.17;;;;;;;;;;5026171;28;20488;-87
2024/02/24 14:11:32;;;;;;;6.60;6.20;;;;;;;;;;5022484;28;20457;-84
2024/02/24 14:13:59;;;;;;;6.70;6.40;;;;;;;;;;5022948;28;20617;-85
2024/02/24 14:16:25;;;;;;;6.03;5.73;;;;;;;;;;5019738;28;20557;-85
2024/02/24 14:18:51;;;;;;;5.50;5.20;;;;;;;;;;5017366;28;21142;-85
2024/02/24 14:21:18;;;;;;;5.73;5.13;;;;;;;;;;5019826;28;20522;-85
2024/02/24 14:23:46;;;;;;;5.33;5.13;;;;;;;;;;5017612;28;20463;-85
2024/02/24 14:26:12;;;;;;;6.30;5.90;;;;;;;;;;5018126;28;20458;-85
2024/02/24 14:28:38;;;;;;;5.77;5.43;;;;;;;;;;5017997;28;20542;-85
2024/02/24 14:31:05;;;;;;;6.60;6.17;;;;;;;;;;5022534;28;20480;-84
2024/02/24 14:33:31;;;;;;;6.20;5.90;;;;;;;;;;5019171;28;20557;-85
2024/02/24 14:35:57;;;;;;;5.63;5.33;;;;;;;;;;5023265;28;20475;-85
2024/02/24 14:38:24;;;;;;;5.93;5.63;;;;;;;;;;5018932;28;20578;-85
2024/02/24 14:40:54;;;;;;;6.43;6.13;;;;;;;;;;5015634;28;21039;-85